sensor_id;sensor_type;location;lat;lon;timestamp;temperature;humidity
76104;HTU21D;64831;44.870;37.336;2024-01-15T00:00:10;5.97;70.05
76104;HTU21D;64831;44.870;37.336;2024-01-15T00:02:37;5.98;70.58
76104;HTU21D;64831;44.870;37.336;2024-01-15T00:05:03;6.05;70.23
76104;HTU21D;64831;44.870;37.336;2024-01-15T00:07:29;6.16;66.10
76104;HTU21D;64831;44.870;37.336;2024-01-15T00:13:01;6.35;61.12
76104;HTU21D;64831;44.870;37.336;2024-01-15T00:15:50;6.43;59.21
76104;HTU21D;64831;44.870;37.336;2024-01-15T00:18:16;6.52;59.65
76104;HTU21D;64831;44.870;37.336;2024-01-15T00:21:01;6.57;59.30
76104;HTU21D;64831;44.870;37.336;2024-01-15T00:23:45;6.60;58.85
76104;HTU21D;64831;44.870;37.336;2024-01-15T00:26:11;6.66;56.91
76104;HTU21D;64831;44.870;37.336;2024-01-15T00:28:37;6.69;57.70
76104;HTU21D;64831;44.870;37.336;2024-01-15T00:31:06;6.72;58.58
76104;HTU21D;64831;44.870;37.336;2024-01-15T00:33:32;6.75;58.45
76104;HTU21D;64831;44.870;37.336;2024-01-15T00:35:58;6.78;59.03
76104;HTU21D;64831;44.870;37.336;2024-01-15T00:38:44;6.80;59.17
76104;HTU21D;64831;44.870;37.336;2024-01-15T00:41:10;6.84;59.49
76104;HTU21D;64831;44.870;37.336;2024-01-15T00:43:36;6.90;60.22
76104;HTU21D;64831;44.870;37.336;2024-01-15T00:46:20;6.95;60.60
76104;HTU21D;64831;44.870;37.336;2024-01-15T00:48:46;6.99;60.66
76104;HTU21D;64831;44.870;37.336;2024-01-15T00:51:13;7.02;60.40
76104;HTU21D;64831;44.870;37.336;2024-01-15T00:53:40;7.05;60.36
76104;HTU21D;64831;44.870;37.336;2024-01-15T00:56:06;7.08;60.49
76104;HTU21D;64831;44.870;37.336;2024-01-15T00:58:32;7.08;58.51
76104;HTU21D;64831;44.870;37.336;2024-01-15T01:00:58;7.08;58.17
76104;HTU21D;64831;44.870;37.336;2024-01-15T01:03:42;7.02;57.37
76104;HTU21D;64831;44.870;37.336;2024-01-15T01:06:26;6.99;58.50
76104;HTU21D;64831;44.870;37.336;2024-01-15T01:08:52;7.00;59.28
76104;HTU21D;64831;44.870;37.336;2024-01-15T01:11:18;7.01;59.61
76104;HTU21D;64831;44.870;37.336;2024-01-15T01:13:44;6.97;58.35
76104;HTU21D;64831;44.870;37.336;2024-01-15T01:16:10;6.95;58.05
76104;HTU21D;64831;44.870;37.336;2024-01-15T01:18:35;6.96;58.54
76104;HTU21D;64831;44.870;37.336;2024-01-15T01:21:02;6.97;57.46
76104;HTU21D;64831;44.870;37.336;2024-01-15T01:23:28;6.98;56.66
76104;HTU21D;64831;44.870;37.336;2024-01-15T01:25:54;7.02;57.96
76104;HTU21D;64831;44.870;37.336;2024-01-15T01:28:20;7.05;58.19
76104;HTU21D;64831;44.870;37.336;2024-01-15T01:30:46;7.09;57.70
76104;HTU21D;64831;44.870;37.336;2024-01-15T01:33:30;7.11;56.27
76104;HTU21D;64831;44.870;37.336;2024-01-15T01:35:56;7.15;57.05
76104;HTU21D;64831;44.870;37.336;2024-01-15T01:38:41;7.19;57.64
76104;HTU21D;64831;44.870;37.336;2024-01-15T01:41:25;7.25;58.03
76104;HTU21D;64831;44.870;37.336;2024-01-15T01:43:52;7.28;57.97
76104;HTU21D;64831;44.870;37.336;2024-01-15T01:46:18;7.29;56.95
76104;HTU21D;64831;44.870;37.336;2024-01-15T01:48:44;7.32;57.19
76104;HTU21D;64831;44.870;37.336;2024-01-15T01:51:11;7.35;57.17
76104;HTU21D;64831;44.870;37.336;2024-01-15T01:53:37;7.38;57.13
76104;HTU21D;64831;44.870;37.336;2024-01-15T01:56:05;7.42;58.07
76104;HTU21D;64831;44.870;37.336;2024-01-15T01:58:32;7.43;57.58
76104;HTU21D;64831;44.870;37.336;2024-01-15T02:00:59;7.43;57.93
76104;HTU21D;64831;44.870;37.336;2024-01-15T02:03:27;7.46;58.77
76104;HTU21D;64831;44.870;37.336;2024-01-15T02:06:11;7.45;59.09
76104;HTU21D;64831;44.870;37.336;2024-01-15T02:08:37;7.47;58.94
76104;HTU21D;64831;44.870;37.336;2024-01-15T02:11:04;7.46;58.56
76104;HTU21D;64831;44.870;37.336;2024-01-15T02:13:29;7.43;58.57
76104;HTU21D;64831;44.870;37.336;2024-01-15T02:15:56;7.44;59.24
76104;HTU21D;64831;44.870;37.336;2024-01-15T02:18:44;7.44;59.44
76104;HTU21D;64831;44.870;37.336;2024-01-15T02:21:28;7.43;59.53
76104;HTU21D;64831;44.870;37.336;2024-01-15T02:23:55;7.41;59.01
76104;HTU21D;64831;44.870;37.336;2024-01-15T02:26:24;7.37;58.58
76104;HTU21D;64831;44.870;37.336;2024-01-15T02:28:51;7.37;58.77
76104;HTU21D;64831;44.870;37.336;2024-01-15T02:31:17;7.39;59.19
76104;HTU21D;64831;44.870;37.336;2024-01-15T02:33:43;7.38;59.25
76104;HTU21D;64831;44.870;37.336;2024-01-15T02:36:11;7.38;59.28
76104;HTU21D;64831;44.870;37.336;2024-01-15T02:38:37;7.44;61.49
76104;HTU21D;64831;44.870;37.336;2024-01-15T02:41:22;7.32;62.21
76104;HTU21D;64831;44.870;37.336;2024-01-15T02:44:06;7.05;66.20
76104;HTU21D;64831;44.870;37.336;2024-01-15T02:46:51;6.79;68.84
76104;HTU21D;64831;44.870;37.336;2024-01-15T02:49:17;6.68;69.39
76104;HTU21D;64831;44.870;37.336;2024-01-15T02:51:43;6.58;70.03
76104;HTU21D;64831;44.870;37.336;2024-01-15T02:54:09;6.52;70.91
76104;HTU21D;64831;44.870;37.336;2024-01-15T02:56:35;6.52;72.14
76104;HTU21D;64831;44.870;37.336;2024-01-15T02:59:01;6.53;72.67
76104;HTU21D;64831;44.870;37.336;2024-01-15T03:01:27;6.54;72.68
76104;HTU21D;64831;44.870;37.336;2024-01-15T03:03:52;6.55;73.33
76104;HTU21D;64831;44.870;37.336;2024-01-15T03:06:20;6.63;73.56
76104;HTU21D;64831;44.870;37.336;2024-01-15T03:08:46;6.72;73.91
76104;HTU21D;64831;44.870;37.336;2024-01-15T03:11:12;6.76;73.28
76104;HTU21D;64831;44.870;37.336;2024-01-15T03:13:38;6.78;73.46
76104;HTU21D;64831;44.870;37.336;2024-01-15T03:16:05;6.76;73.97
76104;HTU21D;64831;44.870;37.336;2024-01-15T03:18:31;6.76;74.80
76104;HTU21D;64831;44.870;37.336;2024-01-15T03:20:58;6.80;75.05
76104;HTU21D;64831;44.870;37.336;2024-01-15T03:23:24;6.82;76.42
76104;HTU21D;64831;44.870;37.336;2024-01-15T03:25:49;6.79;76.00
76104;HTU21D;64831;44.870;37.336;2024-01-15T03:28:15;6.79;75.93
76104;HTU21D;64831;44.870;37.336;2024-01-15T03:30:41;6.75;75.74
76104;HTU21D;64831;44.870;37.336;2024-01-15T03:33:07;6.76;75.40
76104;HTU21D;64831;44.870;37.336;2024-01-15T03:35:33;6.69;76.20
76104;HTU21D;64831;44.870;37.336;2024-01-15T03:37:59;6.41;74.48
76104;HTU21D;64831;44.870;37.336;2024-01-15T03:40:25;6.09;73.24
76104;HTU21D;64831;44.870;37.336;2024-01-15T03:42:51;5.72;73.43
76104;HTU21D;64831;44.870;37.336;2024-01-15T03:45:17;5.48;73.76
76104;HTU21D;64831;44.870;37.336;2024-01-15T03:47:43;5.33;73.76
76104;HTU21D;64831;44.870;37.336;2024-01-15T03:50:09;5.23;73.81
76104;HTU21D;64831;44.870;37.336;2024-01-15T03:52:35;5.15;74.01
76104;HTU21D;64831;44.870;37.336;2024-01-15T03:55:01;5.10;73.92
76104;HTU21D;64831;44.870;37.336;2024-01-15T03:57:27;5.05;73.90
76104;HTU21D;64831;44.870;37.336;2024-01-15T03:59:53;5.03;73.90
76104;HTU21D;64831;44.870;37.336;2024-01-15T04:02:18;4.98;73.86
76104;HTU21D;64831;44.870;37.336;2024-01-15T04:04:44;4.97;73.74
76104;HTU21D;64831;44.870;37.336;2024-01-15T04:07:10;4.94;73.93
76104;HTU21D;64831;44.870;37.336;2024-01-15T04:09:36;4.88;74.16
76104;HTU21D;64831;44.870;37.336;2024-01-15T04:12:20;4.87;74.45
76104;HTU21D;64831;44.870;37.336;2024-01-15T04:14:46;4.87;75.08
76104;HTU21D;64831;44.870;37.336;2024-01-15T04:17:12;4.91;76.89
76104;HTU21D;64831;44.870;37.336;2024-01-15T04:19:38;4.93;77.46
76104;HTU21D;64831;44.870;37.336;2024-01-15T04:22:04;5.01;78.18
76104;HTU21D;64831;44.870;37.336;2024-01-15T04:24:31;5.12;77.63
76104;HTU21D;64831;44.870;37.336;2024-01-15T04:26:58;5.25;77.56
76104;HTU21D;64831;44.870;37.336;2024-01-15T04:29:23;5.31;77.51
76104;HTU21D;64831;44.870;37.336;2024-01-15T04:31:49;5.32;76.39
76104;HTU21D;64831;44.870;37.336;2024-01-15T04:34:15;5.28;75.34
76104;HTU21D;64831;44.870;37.336;2024-01-15T04:36:41;5.26;76.60
76104;HTU21D;64831;44.870;37.336;2024-01-15T04:39:07;5.30;76.38
76104;HTU21D;64831;44.870;37.336;2024-01-15T04:41:34;5.36;76.08
76104;HTU21D;64831;44.870;37.336;2024-01-15T04:44:00;5.51;78.59
76104;HTU21D;64831;44.870;37.336;2024-01-15T04:46:26;5.68;81.05
76104;HTU21D;64831;44.870;37.336;2024-01-15T04:48:52;5.75;81.77
76104;HTU21D;64831;44.870;37.336;2024-01-15T04:51:18;5.89;81.93
76104;HTU21D;64831;44.870;37.336;2024-01-15T04:53:44;6.00;81.78
76104;HTU21D;64831;44.870;37.336;2024-01-15T04:56:28;6.24;81.08
76104;HTU21D;64831;44.870;37.336;2024-01-15T04:58:54;6.43;80.72
76104;HTU21D;64831;44.870;37.336;2024-01-15T05:01:20;6.53;79.86
76104;HTU21D;64831;44.870;37.336;2024-01-15T05:03:46;6.59;79.46
76104;HTU21D;64831;44.870;37.336;2024-01-15T05:06:12;6.72;78.95
76104;HTU21D;64831;44.870;37.336;2024-01-15T05:08:38;6.87;77.11
76104;HTU21D;64831;44.870;37.336;2024-01-15T05:11:04;6.95;76.66
76104;HTU21D;64831;44.870;37.336;2024-01-15T05:13:30;7.02;77.24
76104;HTU21D;64831;44.870;37.336;2024-01-15T05:15:56;7.09;77.69
76104;HTU21D;64831;44.870;37.336;2024-01-15T05:18:21;7.14;77.62
76104;HTU21D;64831;44.870;37.336;2024-01-15T05:20:47;7.18;77.38
76104;HTU21D;64831;44.870;37.336;2024-01-15T05:23:13;7.27;77.22
76104;HTU21D;64831;44.870;37.336;2024-01-15T05:25:39;7.32;77.87
76104;HTU21D;64831;44.870;37.336;2024-01-15T05:28:06;7.41;78.98
76104;HTU21D;64831;44.870;37.336;2024-01-15T05:30:32;7.43;78.63
76104;HTU21D;64831;44.870;37.336;2024-01-15T05:33:16;7.47;78.37
76104;HTU21D;64831;44.870;37.336;2024-01-15T05:35:42;7.52;78.18
76104;HTU21D;64831;44.870;37.336;2024-01-15T05:38:08;7.59;77.82
76104;HTU21D;64831;44.870;37.336;2024-01-15T05:40:34;7.64;77.53
76104;HTU21D;64831;44.870;37.336;2024-01-15T05:43:00;7.68;77.23
76104;HTU21D;64831;44.870;37.336;2024-01-15T05:45:26;7.71;76.34
76104;HTU21D;64831;44.870;37.336;2024-01-15T05:48:12;7.74;75.38
76104;HTU21D;64831;44.870;37.336;2024-01-15T05:50:38;7.81;73.09
76104;HTU21D;64831;44.870;37.336;2024-01-15T05:53:05;7.84;73.52
76104;HTU21D;64831;44.870;37.336;2024-01-15T05:55:31;7.86;73.75
76104;HTU21D;64831;44.870;37.336;2024-01-15T05:57:57;7.86;73.40
76104;HTU21D;64831;44.870;37.336;2024-01-15T06:00:23;7.88;72.23
76104;HTU21D;64831;44.870;37.336;2024-01-15T06:02:49;7.89;71.59
76104;HTU21D;64831;44.870;37.336;2024-01-15T06:05:15;7.90;70.65
76104;HTU21D;64831;44.870;37.336;2024-01-15T06:07:41;7.91;71.06
76104;HTU21D;64831;44.870;37.336;2024-01-15T06:10:07;7.92;71.47
76104;HTU21D;64831;44.870;37.336;2024-01-15T06:12:34;7.94;71.95
76104;HTU21D;64831;44.870;37.336;2024-01-15T06:14:59;7.94;72.81
76104;HTU21D;64831;44.870;37.336;2024-01-15T06:17:25;8.01;74.50
76104;HTU21D;64831;44.870;37.336;2024-01-15T06:19:51;8.08;75.38
76104;HTU21D;64831;44.870;37.336;2024-01-15T06:22:35;8.19;74.96
76104;HTU21D;64831;44.870;37.336;2024-01-15T06:25:02;8.21;74.28
76104;HTU21D;64831;44.870;37.336;2024-01-15T06:27:28;8.24;73.95
76104;HTU21D;64831;44.870;37.336;2024-01-15T06:30:13;8.24;73.50
76104;HTU21D;64831;44.870;37.336;2024-01-15T06:32:39;8.24;73.47
76104;HTU21D;64831;44.870;37.336;2024-01-15T06:35:05;8.39;73.96
76104;HTU21D;64831;44.870;37.336;2024-01-15T06:37:31;8.56;73.15
76104;HTU21D;64831;44.870;37.336;2024-01-15T06:39:58;8.90;73.12
76104;HTU21D;64831;44.870;37.336;2024-01-15T06:42:25;9.37;70.93
76104;HTU21D;64831;44.870;37.336;2024-01-15T06:44:51;9.53;69.16
76104;HTU21D;64831;44.870;37.336;2024-01-15T06:47:16;9.38;68.07
76104;HTU21D;64831;44.870;37.336;2024-01-15T06:49:43;9.03;68.48
76104;HTU21D;64831;44.870;37.336;2024-01-15T06:52:09;8.75;69.65
76104;HTU21D;64831;44.870;37.336;2024-01-15T06:54:37;8.44;70.51
76104;HTU21D;64831;44.870;37.336;2024-01-15T06:57:03;8.32;70.86
76104;HTU21D;64831;44.870;37.336;2024-01-15T06:59:29;8.26;70.29
76104;HTU21D;64831;44.870;37.336;2024-01-15T07:01:55;8.18;69.16
76104;HTU21D;64831;44.870;37.336;2024-01-15T07:04:39;8.13;67.43
76104;HTU21D;64831;44.870;37.336;2024-01-15T07:09:50;8.04;66.79
76104;HTU21D;64831;44.870;37.336;2024-01-15T07:12:17;7.98;67.44
76104;HTU21D;64831;44.870;37.336;2024-01-15T07:17:46;7.79;68.33
76104;HTU21D;64831;44.870;37.336;2024-01-15T07:20:12;7.79;68.84
76104;HTU21D;64831;44.870;37.336;2024-01-15T07:22:38;7.76;69.55
76104;HTU21D;64831;44.870;37.336;2024-01-15T07:25:05;7.81;70.32
76104;HTU21D;64831;44.870;37.336;2024-01-15T07:27:32;7.89;71.27
76104;HTU21D;64831;44.870;37.336;2024-01-15T07:29:58;8.00;72.43
76104;HTU21D;64831;44.870;37.336;2024-01-15T07:32:24;8.17;72.47
76104;HTU21D;64831;44.870;37.336;2024-01-15T07:34:50;8.43;72.57
76104;HTU21D;64831;44.870;37.336;2024-01-15T07:37:16;8.68;71.77
76104;HTU21D;64831;44.870;37.336;2024-01-15T07:39:42;9.23;71.10
76104;HTU21D;64831;44.870;37.336;2024-01-15T07:42:07;9.75;69.73
76104;HTU21D;64831;44.870;37.336;2024-01-15T07:44:33;10.04;67.71
76104;HTU21D;64831;44.870;37.336;2024-01-15T07:46:59;10.08;67.10
76104;HTU21D;64831;44.870;37.336;2024-01-15T07:49:25;9.93;65.25
76104;HTU21D;64831;44.870;37.336;2024-01-15T07:52:10;9.76;65.08
76104;HTU21D;64831;44.870;37.336;2024-01-15T07:54:38;9.90;65.66
76104;HTU21D;64831;44.870;37.336;2024-01-15T07:57:04;10.21;64.18
76104;HTU21D;64831;44.870;37.336;2024-01-15T08:02:15;10.13;63.91
76104;HTU21D;64831;44.870;37.336;2024-01-15T08:04:41;10.06;63.44
76104;HTU21D;64831;44.870;37.336;2024-01-15T08:07:07;10.16;63.58
76104;HTU21D;64831;44.870;37.336;2024-01-15T08:09:33;10.33;63.44
76104;HTU21D;64831;44.870;37.336;2024-01-15T08:11:59;10.29;63.92
76104;HTU21D;64831;44.870;37.336;2024-01-15T08:14:44;9.98;64.66
76104;HTU21D;64831;44.870;37.336;2024-01-15T08:17:11;9.89;64.70
76104;HTU21D;64831;44.870;37.336;2024-01-15T08:19:55;9.81;65.31
76104;HTU21D;64831;44.870;37.336;2024-01-15T08:22:39;9.71;66.17
76104;HTU21D;64831;44.870;37.336;2024-01-15T08:25:05;9.78;66.73
76104;HTU21D;64831;44.870;37.336;2024-01-15T08:27:31;10.01;66.79
76104;HTU21D;64831;44.870;37.336;2024-01-15T08:29:57;10.22;65.61
76104;HTU21D;64831;44.870;37.336;2024-01-15T08:32:42;10.14;64.81
76104;HTU21D;64831;44.870;37.336;2024-01-15T08:35:09;10.16;64.14
76104;HTU21D;64831;44.870;37.336;2024-01-15T08:37:34;10.56;64.59
76104;HTU21D;64831;44.870;37.336;2024-01-15T08:40:00;10.88;63.97
76104;HTU21D;64831;44.870;37.336;2024-01-15T08:42:26;11.00;62.79
76104;HTU21D;64831;44.870;37.336;2024-01-15T08:44:52;11.16;62.58
76104;HTU21D;64831;44.870;37.336;2024-01-15T08:47:18;11.20;62.51
76104;HTU21D;64831;44.870;37.336;2024-01-15T08:49:44;11.11;62.73
76104;HTU21D;64831;44.870;37.336;2024-01-15T08:52:11;11.02;62.93
76104;HTU21D;64831;44.870;37.336;2024-01-15T08:54:38;11.16;63.40
76104;HTU21D;64831;44.870;37.336;2024-01-15T08:57:03;11.14;63.32
76104;HTU21D;64831;44.870;37.336;2024-01-15T08:59:29;11.08;62.40
76104;HTU21D;64831;44.870;37.336;2024-01-15T09:01:55;10.85;62.95
76104;HTU21D;64831;44.870;37.336;2024-01-15T09:04:23;10.95;63.89
76104;HTU21D;64831;44.870;37.336;2024-01-15T09:06:49;10.99;64.56
76104;HTU21D;64831;44.870;37.336;2024-01-15T09:09:15;11.02;64.00
76104;HTU21D;64831;44.870;37.336;2024-01-15T09:11:41;10.88;63.72
76104;HTU21D;64831;44.870;37.336;2024-01-15T09:14:07;10.45;63.41
76104;HTU21D;64831;44.870;37.336;2024-01-15T09:16:34;10.22;64.82
76104;HTU21D;64831;44.870;37.336;2024-01-15T09:18:59;10.14;65.53
76104;HTU21D;64831;44.870;37.336;2024-01-15T09:21:25;9.84;65.66
76104;HTU21D;64831;44.870;37.336;2024-01-15T09:23:51;9.51;65.14
76104;HTU21D;64831;44.870;37.336;2024-01-15T09:26:17;9.12;66.47
76104;HTU21D;64831;44.870;37.336;2024-01-15T09:28:43;9.07;68.62
76104;HTU21D;64831;44.870;37.336;2024-01-15T09:31:09;9.09;69.30
76104;HTU21D;64831;44.870;37.336;2024-01-15T09:33:53;9.14;71.46
76104;HTU21D;64831;44.870;37.336;2024-01-15T09:36:22;9.01;71.26
76104;HTU21D;64831;44.870;37.336;2024-01-15T09:38:51;8.90;71.83
76104;HTU21D;64831;44.870;37.336;2024-01-15T09:41:17;8.85;72.26
76104;HTU21D;64831;44.870;37.336;2024-01-15T09:47:04;8.76;70.71
76104;HTU21D;64831;44.870;37.336;2024-01-15T09:49:32;8.71;71.58
76104;HTU21D;64831;44.870;37.336;2024-01-15T09:51:58;8.71;72.20
76104;HTU21D;64831;44.870;37.336;2024-01-15T09:54:24;8.79;72.80
76104;HTU21D;64831;44.870;37.336;2024-01-15T09:56:50;8.81;71.38
76104;HTU21D;64831;44.870;37.336;2024-01-15T09:59:18;8.82;71.63
76104;HTU21D;64831;44.870;37.336;2024-01-15T10:01:44;8.87;71.86
76104;HTU21D;64831;44.870;37.336;2024-01-15T10:04:11;9.02;71.79
76104;HTU21D;64831;44.870;37.336;2024-01-15T10:06:45;9.16;71.15
76104;HTU21D;64831;44.870;37.336;2024-01-15T10:09:14;9.12;70.88
76104;HTU21D;64831;44.870;37.336;2024-01-15T10:11:44;9.08;71.06
76104;HTU21D;64831;44.870;37.336;2024-01-15T10:14:11;8.98;72.15
76104;HTU21D;64831;44.870;37.336;2024-01-15T10:16:43;8.94;72.15
76104;HTU21D;64831;44.870;37.336;2024-01-15T10:19:09;8.95;72.42
76104;HTU21D;64831;44.870;37.336;2024-01-15T10:21:36;8.98;72.38
76104;HTU21D;64831;44.870;37.336;2024-01-15T10:24:03;8.97;72.65
76104;HTU21D;64831;44.870;37.336;2024-01-15T10:26:30;9.05;72.76
76104;HTU21D;64831;44.870;37.336;2024-01-15T10:28:58;9.26;72.51
76104;HTU21D;64831;44.870;37.336;2024-01-15T10:31:43;9.50;71.75
76104;HTU21D;64831;44.870;37.336;2024-01-15T10:34:10;9.59;70.53
76104;HTU21D;64831;44.870;37.336;2024-01-15T10:36:41;9.56;70.67
76104;HTU21D;64831;44.870;37.336;2024-01-15T10:39:07;9.52;70.62
76104;HTU21D;64831;44.870;37.336;2024-01-15T10:41:37;9.44;70.71
76104;HTU21D;64831;44.870;37.336;2024-01-15T10:44:03;9.45;70.32
76104;HTU21D;64831;44.870;37.336;2024-01-15T10:46:30;9.40;69.83
76104;HTU21D;64831;44.870;37.336;2024-01-15T10:48:57;9.44;70.21
76104;HTU21D;64831;44.870;37.336;2024-01-15T10:51:24;9.44;70.01
76104;HTU21D;64831;44.870;37.336;2024-01-15T10:53:53;9.35;69.83
76104;HTU21D;64831;44.870;37.336;2024-01-15T10:56:19;9.32;69.89
76104;HTU21D;64831;44.870;37.336;2024-01-15T10:58:47;9.32;70.09
76104;HTU21D;64831;44.870;37.336;2024-01-15T11:01:13;9.30;70.25
76104;HTU21D;64831;44.870;37.336;2024-01-15T11:03:39;9.38;70.08
76104;HTU21D;64831;44.870;37.336;2024-01-15T11:06:16;9.48;69.99
76104;HTU21D;64831;44.870;37.336;2024-01-15T11:08:54;9.51;70.06
76104;HTU21D;64831;44.870;37.336;2024-01-15T11:11:23;9.55;70.14
76104;HTU21D;64831;44.870;37.336;2024-01-15T11:13:52;9.61;69.97
76104;HTU21D;64831;44.870;37.336;2024-01-15T11:16:18;9.63;69.83
76104;HTU21D;64831;44.870;37.336;2024-01-15T11:21:43;9.70;69.59
76104;HTU21D;64831;44.870;37.336;2024-01-15T11:24:09;9.65;68.96
76104;HTU21D;64831;44.870;37.336;2024-01-15T11:26:44;9.69;68.98
76104;HTU21D;64831;44.870;37.336;2024-01-15T11:32:09;9.77;68.46
76104;HTU21D;64831;44.870;37.336;2024-01-15T11:40:36;9.88;68.35
76104;HTU21D;64831;44.870;37.336;2024-01-15T11:43:04;9.85;68.27
76104;HTU21D;64831;44.870;37.336;2024-01-15T11:45:31;9.92;68.52
76104;HTU21D;64831;44.870;37.336;2024-01-15T11:48:12;9.83;68.06
76104;HTU21D;64831;44.870;37.336;2024-01-15T11:50:44;9.86;68.18
76104;HTU21D;64831;44.870;37.336;2024-01-15T11:53:33;9.85;68.26
76104;HTU21D;64831;44.870;37.336;2024-01-15T11:56:02;9.85;68.15
76104;HTU21D;64831;44.870;37.336;2024-01-15T11:58:28;9.88;68.33
76104;HTU21D;64831;44.870;37.336;2024-01-15T12:00:54;9.85;68.54
76104;HTU21D;64831;44.870;37.336;2024-01-15T12:03:21;9.75;68.72
76104;HTU21D;64831;44.870;37.336;2024-01-15T12:05:48;9.76;69.01
76104;HTU21D;64831;44.870;37.336;2024-01-15T12:08:14;9.72;69.28
76104;HTU21D;64831;44.870;37.336;2024-01-15T12:10:41;9.74;69.37
76104;HTU21D;64831;44.870;37.336;2024-01-15T12:13:25;9.66;69.44
76104;HTU21D;64831;44.870;37.336;2024-01-15T12:16:11;9.71;69.52
76104;HTU21D;64831;44.870;37.336;2024-01-15T12:18:38;9.69;69.29
76104;HTU21D;64831;44.870;37.336;2024-01-15T12:21:04;9.70;69.23
76104;HTU21D;64831;44.870;37.336;2024-01-15T12:23:30;9.70;69.13
76104;HTU21D;64831;44.870;37.336;2024-01-15T12:25:55;9.69;68.95
76104;HTU21D;64831;44.870;37.336;2024-01-15T12:28:22;9.63;68.69
76104;HTU21D;64831;44.870;37.336;2024-01-15T12:30:48;9.63;68.54
76104;HTU21D;64831;44.870;37.336;2024-01-15T12:33:34;9.59;69.16
76104;HTU21D;64831;44.870;37.336;2024-01-15T12:35:59;9.59;69.62
76104;HTU21D;64831;44.870;37.336;2024-01-15T12:38:28;9.60;69.33
76104;HTU21D;64831;44.870;37.336;2024-01-15T12:40:54;9.55;68.64
76104;HTU21D;64831;44.870;37.336;2024-01-15T12:43:20;9.52;68.31
76104;HTU21D;64831;44.870;37.336;2024-01-15T12:45:46;9.48;68.32
76104;HTU21D;64831;44.870;37.336;2024-01-15T12:48:12;9.48;68.78
76104;HTU21D;64831;44.870;37.336;2024-01-15T12:50:43;9.49;69.59
76104;HTU21D;64831;44.870;37.336;2024-01-15T12:53:09;9.56;69.55
76104;HTU21D;64831;44.870;37.336;2024-01-15T12:55:35;9.62;69.76
76104;HTU21D;64831;44.870;37.336;2024-01-15T12:58:01;9.60;69.40
76104;HTU21D;64831;44.870;37.336;2024-01-15T13:00:27;9.61;69.10
76104;HTU21D;64831;44.870;37.336;2024-01-15T13:02:53;9.59;68.86
76104;HTU21D;64831;44.870;37.336;2024-01-15T13:05:20;9.59;68.87
76104;HTU21D;64831;44.870;37.336;2024-01-15T13:08:05;9.54;68.64
76104;HTU21D;64831;44.870;37.336;2024-01-15T13:10:31;9.51;68.39
76104;HTU21D;64831;44.870;37.336;2024-01-15T13:12:57;9.48;68.50
76104;HTU21D;64831;44.870;37.336;2024-01-15T13:15:23;9.46;68.61
76104;HTU21D;64831;44.870;37.336;2024-01-15T13:17:49;9.47;68.60
76104;HTU21D;64831;44.870;37.336;2024-01-15T13:20:15;9.44;68.46
76104;HTU21D;64831;44.870;37.336;2024-01-15T13:25:26;9.41;68.40
76104;HTU21D;64831;44.870;37.336;2024-01-15T13:28:10;9.40;68.44
76104;HTU21D;64831;44.870;37.336;2024-01-15T13:30:36;9.39;68.38
76104;HTU21D;64831;44.870;37.336;2024-01-15T13:33:03;9.38;68.35
76104;HTU21D;64831;44.870;37.336;2024-01-15T13:35:30;9.36;68.37
76104;HTU21D;64831;44.870;37.336;2024-01-15T13:37:57;9.34;68.58
76104;HTU21D;64831;44.870;37.336;2024-01-15T13:40:23;9.31;68.62
76104;HTU21D;64831;44.870;37.336;2024-01-15T13:42:50;9.33;68.61
76104;HTU21D;64831;44.870;37.336;2024-01-15T13:45:18;9.30;68.94
76104;HTU21D;64831;44.870;37.336;2024-01-15T13:47:46;9.30;69.21
76104;HTU21D;64831;44.870;37.336;2024-01-15T13:50:12;9.23;69.47
76104;HTU21D;64831;44.870;37.336;2024-01-15T13:52:37;9.17;67.78
76104;HTU21D;64831;44.870;37.336;2024-01-15T13:55:22;9.14;67.46
76104;HTU21D;64831;44.870;37.336;2024-01-15T13:57:48;9.17;68.13
76104;HTU21D;64831;44.870;37.336;2024-01-15T14:00:15;9.22;68.40
76104;HTU21D;64831;44.870;37.336;2024-01-15T14:02:44;9.22;68.23
76104;HTU21D;64831;44.870;37.336;2024-01-15T14:05:12;9.22;68.65
76104;HTU21D;64831;44.870;37.336;2024-01-15T14:07:38;9.20;69.07
76104;HTU21D;64831;44.870;37.336;2024-01-15T14:10:09;9.24;69.10
76104;HTU21D;64831;44.870;37.336;2024-01-15T14:12:35;9.26;69.12
76104;HTU21D;64831;44.870;37.336;2024-01-15T14:15:02;9.27;69.49
76104;HTU21D;64831;44.870;37.336;2024-01-15T14:17:29;9.26;69.73
76104;HTU21D;64831;44.870;37.336;2024-01-15T14:19:55;9.30;69.50
76104;HTU21D;64831;44.870;37.336;2024-01-15T14:22:21;9.29;69.58
76104;HTU21D;64831;44.870;37.336;2024-01-15T14:24:46;9.31;69.36
76104;HTU21D;64831;44.870;37.336;2024-01-15T14:29:58;9.31;69.46
76104;HTU21D;64831;44.870;37.336;2024-01-15T14:32:24;9.29;69.55
76104;HTU21D;64831;44.870;37.336;2024-01-15T14:34:49;9.30;69.52
76104;HTU21D;64831;44.870;37.336;2024-01-15T14:37:16;9.29;69.74
76104;HTU21D;64831;44.870;37.336;2024-01-15T14:39:41;9.30;69.59
76104;HTU21D;64831;44.870;37.336;2024-01-15T14:42:27;9.29;69.48
76104;HTU21D;64831;44.870;37.336;2024-01-15T14:44:52;9.30;69.37
76104;HTU21D;64831;44.870;37.336;2024-01-15T14:47:18;9.27;69.16
76104;HTU21D;64831;44.870;37.336;2024-01-15T14:49:49;9.25;68.85
76104;HTU21D;64831;44.870;37.336;2024-01-15T14:52:15;9.25;68.77
76104;HTU21D;64831;44.870;37.336;2024-01-15T14:54:41;9.21;68.20
76104;HTU21D;64831;44.870;37.336;2024-01-15T14:57:07;9.21;68.16
76104;HTU21D;64831;44.870;37.336;2024-01-15T14:59:33;9.21;67.66
76104;HTU21D;64831;44.870;37.336;2024-01-15T15:02:19;9.23;67.72
76104;HTU21D;64831;44.870;37.336;2024-01-15T15:04:45;9.23;67.93
76104;HTU21D;64831;44.870;37.336;2024-01-15T15:07:11;9.21;68.05
76104;HTU21D;64831;44.870;37.336;2024-01-15T15:09:37;9.21;68.07
76104;HTU21D;64831;44.870;37.336;2024-01-15T15:12:06;9.22;68.04
76104;HTU21D;64831;44.870;37.336;2024-01-15T15:14:32;9.21;67.72
76104;HTU21D;64831;44.870;37.336;2024-01-15T15:17:05;9.19;67.46
76104;HTU21D;64831;44.870;37.336;2024-01-15T15:19:32;9.22;67.55
76104;HTU21D;64831;44.870;37.336;2024-01-15T15:21:58;9.22;67.53
76104;HTU21D;64831;44.870;37.336;2024-01-15T15:27:28;9.16;67.28
76104;HTU21D;64831;44.870;37.336;2024-01-15T15:29:54;9.18;67.26
76104;HTU21D;64831;44.870;37.336;2024-01-15T15:32:20;9.17;66.61
76104;HTU21D;64831;44.870;37.336;2024-01-15T15:34:46;9.20;66.64
76104;HTU21D;64831;44.870;37.336;2024-01-15T15:37:12;9.19;66.20
76104;HTU21D;64831;44.870;37.336;2024-01-15T15:39:38;9.21;66.46
76104;HTU21D;64831;44.870;37.336;2024-01-15T15:42:04;9.20;66.12
76104;HTU21D;64831;44.870;37.336;2024-01-15T15:44:30;9.22;66.30
76104;HTU21D;64831;44.870;37.336;2024-01-15T15:46:56;9.23;66.31
76104;HTU21D;64831;44.870;37.336;2024-01-15T15:49:22;9.24;66.25
76104;HTU21D;64831;44.870;37.336;2024-01-15T15:51:48;9.24;65.84
76104;HTU21D;64831;44.870;37.336;2024-01-15T15:54:14;9.25;65.62
76104;HTU21D;64831;44.870;37.336;2024-01-15T15:56:39;9.25;65.79